Inglewood, Florida
Current Conditions -  °F | °C
As of 1:53 PM on Monday 20 Oct 2014 (Local Time) from KPGD Reporting Station
Few Clouds Few Clouds  
Wind Chill: 31°   Ceiling: Unl
Heat Index: 31°   Visibility: 10mi
Dew Point: 18°   Wind: 7mph
Humidity: 46%   Direction: 90°E
Pressure: 29.99"   Gusts: NA
Location:  26.9253°N, 82.3009°W
Report Text: KPGD 201753Z 09006KT 10SM FEW050 31/18 A2999 RMK AO2 SLP156 T03060178 10306 20183 58022
Loading
Personal Weather Stations






























Interactive Weather Map
Tropical Storm Tracking
New forecast layout! Learn more

10-Day Weather Forecast

Advertisements
Track Severe Weather on mobile